sensor_id;sensor_type;location;lat;lon;timestamp;P1;durP1;ratioP1;P2;durP2;ratioP2
5754;SDS011;2902;42.130;24.732;2024-02-14T00:00:32;1.33;;;1.23;;
5754;SDS011;2902;42.130;24.732;2024-02-14T00:02:59;1.40;;;1.40;;
5754;SDS011;2902;42.130;24.732;2024-02-14T00:05:27;1.40;;;1.40;;
5754;SDS011;2902;42.130;24.732;2024-02-14T00:07:54;1.53;;;1.43;;
5754;SDS011;2902;42.130;24.732;2024-02-14T00:10:20;1.20;;;1.20;;
5754;SDS011;2902;42.130;24.732;2024-02-14T00:12:48;1.20;;;1.20;;
5754;SDS011;2902;42.130;24.732;2024-02-14T00:15:14;1.60;;;1.60;;
5754;SDS011;2902;42.130;24.732;2024-02-14T00:17:41;1.30;;;1.30;;
5754;SDS011;2902;42.130;24.732;2024-02-14T00:20:09;1.20;;;1.20;;
5754;SDS011;2902;42.130;24.732;2024-02-14T00:22:38;1.43;;;1.33;;
5754;SDS011;2902;42.130;24.732;2024-02-14T00:25:05;1.60;;;1.50;;
5754;SDS011;2902;42.130;24.732;2024-02-14T00:27:34;1.30;;;1.30;;
5754;SDS011;2902;42.130;24.732;2024-02-14T00:30:00;1.10;;;1.10;;
5754;SDS011;2902;42.130;24.732;2024-02-14T00:32:28;1.37;;;1.37;;
5754;SDS011;2902;42.130;24.732;2024-02-14T00:34:55;1.67;;;1.57;;
5754;SDS011;2902;42.130;24.732;2024-02-14T00:37:21;1.57;;;1.57;;
5754;SDS011;2902;42.130;24.732;2024-02-14T00:39:50;1.40;;;1.40;;
5754;SDS011;2902;42.130;24.732;2024-02-14T00:42:17;1.60;;;1.33;;
5754;SDS011;2902;42.130;24.732;2024-02-14T00:44:43;1.10;;;1.10;;
5754;SDS011;2902;42.130;24.732;2024-02-14T00:47:10;1.13;;;1.13;;
5754;SDS011;2902;42.130;24.732;2024-02-14T00:49:37;1.30;;;1.30;;
5754;SDS011;2902;42.130;24.732;2024-02-14T00:52:04;1.47;;;1.40;;
5754;SDS011;2902;42.130;24.732;2024-02-14T00:54:31;1.40;;;1.30;;
5754;SDS011;2902;42.130;24.732;2024-02-14T00:56:59;1.60;;;1.50;;
5754;SDS011;2902;42.130;24.732;2024-02-14T00:59:26;1.33;;;1.33;;
5754;SDS011;2902;42.130;24.732;2024-02-14T01:01:53;1.70;;;1.70;;
5754;SDS011;2902;42.130;24.732;2024-02-14T01:04:20;2.33;;;2.13;;
5754;SDS011;2902;42.130;24.732;2024-02-14T01:06:46;1.40;;;1.40;;
5754;SDS011;2902;42.130;24.732;2024-02-14T01:09:14;1.50;;;1.50;;
5754;SDS011;2902;42.130;24.732;2024-02-14T01:11:42;2.00;;;1.70;;
5754;SDS011;2902;42.130;24.732;2024-02-14T01:14:10;1.50;;;1.50;;
5754;SDS011;2902;42.130;24.732;2024-02-14T01:16:41;1.60;;;1.50;;
5754;SDS011;2902;42.130;24.732;2024-02-14T01:19:08;1.40;;;1.40;;
5754;SDS011;2902;42.130;24.732;2024-02-14T01:21:35;1.60;;;1.60;;
5754;SDS011;2902;42.130;24.732;2024-02-14T01:24:02;1.40;;;1.30;;
5754;SDS011;2902;42.130;24.732;2024-02-14T01:26:30;1.40;;;1.40;;
5754;SDS011;2902;42.130;24.732;2024-02-14T01:28:57;1.60;;;1.50;;
5754;SDS011;2902;42.130;24.732;2024-02-14T01:31:26;1.60;;;1.60;;
5754;SDS011;2902;42.130;24.732;2024-02-14T01:33:53;1.40;;;1.40;;
5754;SDS011;2902;42.130;24.732;2024-02-14T01:36:20;1.80;;;1.80;;
5754;SDS011;2902;42.130;24.732;2024-02-14T01:38:47;1.43;;;1.43;;
5754;SDS011;2902;42.130;24.732;2024-02-14T01:41:15;1.30;;;1.30;;
5754;SDS011;2902;42.130;24.732;2024-02-14T01:43:41;1.30;;;1.30;;
5754;SDS011;2902;42.130;24.732;2024-02-14T01:46:09;1.63;;;1.53;;
5754;SDS011;2902;42.130;24.732;2024-02-14T01:48:37;1.60;;;1.50;;
5754;SDS011;2902;42.130;24.732;2024-02-14T01:51:05;1.50;;;1.50;;
5754;SDS011;2902;42.130;24.732;2024-02-14T01:53:34;1.30;;;1.30;;
5754;SDS011;2902;42.130;24.732;2024-02-14T01:56:02;1.53;;;1.20;;
5754;SDS011;2902;42.130;24.732;2024-02-14T01:58:30;1.60;;;1.50;;
5754;SDS011;2902;42.130;24.732;2024-02-14T02:00:59;1.30;;;1.30;;
5754;SDS011;2902;42.130;24.732;2024-02-14T02:03:28;1.43;;;1.33;;
5754;SDS011;2902;42.130;24.732;2024-02-14T02:05:56;1.30;;;1.30;;
5754;SDS011;2902;42.130;24.732;2024-02-14T02:08:23;1.70;;;1.50;;
5754;SDS011;2902;42.130;24.732;2024-02-14T02:10:50;1.80;;;1.70;;
5754;SDS011;2902;42.130;24.732;2024-02-14T02:13:16;1.93;;;1.63;;
5754;SDS011;2902;42.130;24.732;2024-02-14T02:15:44;1.50;;;1.50;;
5754;SDS011;2902;42.130;24.732;2024-02-14T02:18:11;1.77;;;1.67;;
5754;SDS011;2902;42.130;24.732;2024-02-14T02:20:40;1.60;;;1.57;;
5754;SDS011;2902;42.130;24.732;2024-02-14T02:23:08;1.53;;;1.53;;
5754;SDS011;2902;42.130;24.732;2024-02-14T02:25:39;1.50;;;1.50;;
5754;SDS011;2902;42.130;24.732;2024-02-14T02:28:06;1.40;;;1.40;;
5754;SDS011;2902;42.130;24.732;2024-02-14T02:30:33;1.60;;;1.60;;
5754;SDS011;2902;42.130;24.732;2024-02-14T02:33:01;1.37;;;1.37;;
5754;SDS011;2902;42.130;24.732;2024-02-14T02:35:28;1.80;;;1.70;;
5754;SDS011;2902;42.130;24.732;2024-02-14T02:37:55;1.87;;;1.77;;
5754;SDS011;2902;42.130;24.732;2024-02-14T02:40:23;1.97;;;1.87;;
5754;SDS011;2902;42.130;24.732;2024-02-14T02:42:50;1.87;;;1.77;;
5754;SDS011;2902;42.130;24.732;2024-02-14T02:45:17;1.70;;;1.70;;
5754;SDS011;2902;42.130;24.732;2024-02-14T02:47:43;1.50;;;1.50;;
5754;SDS011;2902;42.130;24.732;2024-02-14T02:50:10;2.00;;;1.90;;
5754;SDS011;2902;42.130;24.732;2024-02-14T02:52:37;1.83;;;1.77;;
5754;SDS011;2902;42.130;24.732;2024-02-14T02:55:04;1.70;;;1.70;;
5754;SDS011;2902;42.130;24.732;2024-02-14T02:57:32;2.80;;;2.70;;
5754;SDS011;2902;42.130;24.732;2024-02-14T03:00:02;2.77;;;2.57;;
5754;SDS011;2902;42.130;24.732;2024-02-14T03:02:30;2.43;;;2.33;;
5754;SDS011;2902;42.130;24.732;2024-02-14T03:04:57;2.50;;;2.30;;
5754;SDS011;2902;42.130;24.732;2024-02-14T03:07:24;2.23;;;2.13;;
5754;SDS011;2902;42.130;24.732;2024-02-14T03:09:50;2.23;;;2.13;;
5754;SDS011;2902;42.130;24.732;2024-02-14T03:12:17;1.93;;;1.83;;
5754;SDS011;2902;42.130;24.732;2024-02-14T03:14:47;2.20;;;2.10;;
5754;SDS011;2902;42.130;24.732;2024-02-14T03:17:14;2.07;;;1.97;;
5754;SDS011;2902;42.130;24.732;2024-02-14T03:19:41;2.37;;;2.23;;
5754;SDS011;2902;42.130;24.732;2024-02-14T03:22:08;3.60;;;3.40;;
5754;SDS011;2902;42.130;24.732;2024-02-14T03:24:35;5.03;;;4.00;;
5754;SDS011;2902;42.130;24.732;2024-02-14T03:27:02;4.10;;;3.90;;
5754;SDS011;2902;42.130;24.732;2024-02-14T03:29:30;3.07;;;2.83;;
5754;SDS011;2902;42.130;24.732;2024-02-14T03:31:59;2.63;;;2.43;;
5754;SDS011;2902;42.130;24.732;2024-02-14T03:34:29;2.70;;;2.53;;
5754;SDS011;2902;42.130;24.732;2024-02-14T03:36:58;2.67;;;2.50;;
5754;SDS011;2902;42.130;24.732;2024-02-14T03:39:26;3.23;;;2.63;;
5754;SDS011;2902;42.130;24.732;2024-02-14T03:41:53;2.53;;;2.43;;
5754;SDS011;2902;42.130;24.732;2024-02-14T03:44:21;3.53;;;3.23;;
5754;SDS011;2902;42.130;24.732;2024-02-14T03:46:48;2.47;;;2.37;;
5754;SDS011;2902;42.130;24.732;2024-02-14T03:49:16;2.80;;;2.70;;
5754;SDS011;2902;42.130;24.732;2024-02-14T03:51:43;2.67;;;2.57;;
5754;SDS011;2902;42.130;24.732;2024-02-14T03:54:10;2.57;;;2.47;;
5754;SDS011;2902;42.130;24.732;2024-02-14T03:56:37;3.80;;;2.73;;
5754;SDS011;2902;42.130;24.732;2024-02-14T03:59:03;3.13;;;2.93;;
5754;SDS011;2902;42.130;24.732;2024-02-14T04:01:32;3.50;;;3.30;;
5754;SDS011;2902;42.130;24.732;2024-02-14T04:03:59;6.07;;;5.67;;
5754;SDS011;2902;42.130;24.732;2024-02-14T04:06:27;3.90;;;3.70;;
5754;SDS011;2902;42.130;24.732;2024-02-14T04:08:56;5.40;;;5.00;;
5754;SDS011;2902;42.130;24.732;2024-02-14T04:11:24;3.60;;;3.47;;
5754;SDS011;2902;42.130;24.732;2024-02-14T04:13:50;3.50;;;3.30;;
5754;SDS011;2902;42.130;24.732;2024-02-14T04:16:18;3.90;;;3.70;;
5754;SDS011;2902;42.130;24.732;2024-02-14T04:18:45;3.80;;;3.60;;
5754;SDS011;2902;42.130;24.732;2024-02-14T04:21:12;3.37;;;3.07;;
5754;SDS011;2902;42.130;24.732;2024-02-14T04:23:40;3.43;;;3.27;;
5754;SDS011;2902;42.130;24.732;2024-02-14T04:26:07;3.60;;;3.40;;
5754;SDS011;2902;42.130;24.732;2024-02-14T04:28:34;3.53;;;3.33;;
5754;SDS011;2902;42.130;24.732;2024-02-14T04:31:01;5.73;;;4.03;;
5754;SDS011;2902;42.130;24.732;2024-02-14T04:33:28;3.23;;;3.13;;
5754;SDS011;2902;42.130;24.732;2024-02-14T04:35:55;3.70;;;3.50;;
5754;SDS011;2902;42.130;24.732;2024-02-14T04:38:21;4.60;;;4.40;;
5754;SDS011;2902;42.130;24.732;2024-02-14T04:40:50;6.33;;;5.83;;
5754;SDS011;2902;42.130;24.732;2024-02-14T04:43:17;4.40;;;4.20;;
5754;SDS011;2902;42.130;24.732;2024-02-14T04:45:44;4.20;;;3.90;;
5754;SDS011;2902;42.130;24.732;2024-02-14T04:48:11;4.30;;;4.00;;
5754;SDS011;2902;42.130;24.732;2024-02-14T04:50:38;4.10;;;3.80;;
5754;SDS011;2902;42.130;24.732;2024-02-14T04:53:05;3.87;;;3.67;;
5754;SDS011;2902;42.130;24.732;2024-02-14T04:55:32;3.93;;;3.63;;
5754;SDS011;2902;42.130;24.732;2024-02-14T04:58:00;4.30;;;4.00;;
5754;SDS011;2902;42.130;24.732;2024-02-14T05:00:27;4.47;;;4.27;;
5754;SDS011;2902;42.130;24.732;2024-02-14T05:02:54;4.93;;;4.47;;
5754;SDS011;2902;42.130;24.732;2024-02-14T05:05:22;4.70;;;4.30;;
5754;SDS011;2902;42.130;24.732;2024-02-14T05:07:49;4.57;;;4.37;;
5754;SDS011;2902;42.130;24.732;2024-02-14T05:10:16;5.30;;;4.27;;
5754;SDS011;2902;42.130;24.732;2024-02-14T05:12:43;4.83;;;4.53;;
5754;SDS011;2902;42.130;24.732;2024-02-14T05:15:11;4.83;;;4.53;;
5754;SDS011;2902;42.130;24.732;2024-02-14T05:17:38;6.07;;;5.57;;
5754;SDS011;2902;42.130;24.732;2024-02-14T05:20:05;5.13;;;4.63;;
5754;SDS011;2902;42.130;24.732;2024-02-14T05:22:35;4.70;;;4.40;;
5754;SDS011;2902;42.130;24.732;2024-02-14T05:25:02;5.07;;;4.57;;
5754;SDS011;2902;42.130;24.732;2024-02-14T05:27:29;4.73;;;4.37;;
5754;SDS011;2902;42.130;24.732;2024-02-14T05:29:56;5.63;;;5.23;;
5754;SDS011;2902;42.130;24.732;2024-02-14T05:32:24;5.40;;;5.10;;
5754;SDS011;2902;42.130;24.732;2024-02-14T05:34:51;5.50;;;5.20;;
5754;SDS011;2902;42.130;24.732;2024-02-14T05:37:19;6.67;;;6.17;;
5754;SDS011;2902;42.130;24.732;2024-02-14T05:39:46;6.13;;;5.73;;
5754;SDS011;2902;42.130;24.732;2024-02-14T05:42:13;6.13;;;5.63;;
5754;SDS011;2902;42.130;24.732;2024-02-14T05:44:41;5.50;;;5.10;;
5754;SDS011;2902;42.130;24.732;2024-02-14T05:47:08;5.30;;;4.80;;
5754;SDS011;2902;42.130;24.732;2024-02-14T05:49:37;5.67;;;5.37;;
5754;SDS011;2902;42.130;24.732;2024-02-14T05:52:05;5.50;;;5.20;;
5754;SDS011;2902;42.130;24.732;2024-02-14T05:54:32;5.47;;;5.17;;
5754;SDS011;2902;42.130;24.732;2024-02-14T05:56:58;4.93;;;4.63;;
5754;SDS011;2902;42.130;24.732;2024-02-14T05:59:26;4.83;;;4.43;;
5754;SDS011;2902;42.130;24.732;2024-02-14T06:01:52;3.90;;;3.70;;
5754;SDS011;2902;42.130;24.732;2024-02-14T06:04:19;5.17;;;4.87;;
5754;SDS011;2902;42.130;24.732;2024-02-14T06:06:47;5.13;;;4.83;;
5754;SDS011;2902;42.130;24.732;2024-02-14T06:09:14;5.70;;;5.30;;
5754;SDS011;2902;42.130;24.732;2024-02-14T06:11:42;5.80;;;5.40;;
5754;SDS011;2902;42.130;24.732;2024-02-14T06:14:09;5.60;;;5.10;;
5754;SDS011;2902;42.130;24.732;2024-02-14T06:16:36;6.03;;;5.53;;
5754;SDS011;2902;42.130;24.732;2024-02-14T06:19:03;6.10;;;5.60;;
5754;SDS011;2902;42.130;24.732;2024-02-14T06:21:31;5.80;;;5.50;;
5754;SDS011;2902;42.130;24.732;2024-02-14T06:23:59;5.73;;;5.43;;
5754;SDS011;2902;42.130;24.732;2024-02-14T06:26:29;5.53;;;5.17;;
5754;SDS011;2902;42.130;24.732;2024-02-14T06:28:56;5.20;;;4.90;;
5754;SDS011;2902;42.130;24.732;2024-02-14T06:31:23;5.03;;;4.73;;
5754;SDS011;2902;42.130;24.732;2024-02-14T06:33:50;6.93;;;5.87;;
5754;SDS011;2902;42.130;24.732;2024-02-14T06:36:17;4.57;;;4.37;;
5754;SDS011;2902;42.130;24.732;2024-02-14T06:38:43;10.30;;;4.93;;
5754;SDS011;2902;42.130;24.732;2024-02-14T06:41:12;5.60;;;5.30;;
5754;SDS011;2902;42.130;24.732;2024-02-14T06:43:39;5.53;;;5.13;;
5754;SDS011;2902;42.130;24.732;2024-02-14T06:46:06;6.00;;;5.50;;
5754;SDS011;2902;42.130;24.732;2024-02-14T06:48:32;5.30;;;5.00;;
5754;SDS011;2902;42.130;24.732;2024-02-14T06:50:59;9.70;;;8.70;;
5754;SDS011;2902;42.130;24.732;2024-02-14T06:53:26;6.60;;;6.10;;
5754;SDS011;2902;42.130;24.732;2024-02-14T06:55:53;5.70;;;5.40;;
5754;SDS011;2902;42.130;24.732;2024-02-14T06:58:21;5.20;;;4.90;;
5754;SDS011;2902;42.130;24.732;2024-02-14T07:00:47;5.77;;;5.40;;
5754;SDS011;2902;42.130;24.732;2024-02-14T07:03:14;5.30;;;4.80;;
5754;SDS011;2902;42.130;24.732;2024-02-14T07:05:41;5.40;;;5.10;;
5754;SDS011;2902;42.130;24.732;2024-02-14T07:08:08;5.50;;;5.17;;
5754;SDS011;2902;42.130;24.732;2024-02-14T07:10:35;6.47;;;5.97;;
5754;SDS011;2902;42.130;24.732;2024-02-14T07:13:02;6.17;;;5.77;;
5754;SDS011;2902;42.130;24.732;2024-02-14T07:15:30;5.43;;;5.00;;
5754;SDS011;2902;42.130;24.732;2024-02-14T07:17:57;6.53;;;5.93;;
5754;SDS011;2902;42.130;24.732;2024-02-14T07:20:24;7.67;;;7.03;;
5754;SDS011;2902;42.130;24.732;2024-02-14T07:22:52;6.90;;;6.07;;
5754;SDS011;2902;42.130;24.732;2024-02-14T07:25:20;7.23;;;6.63;;
5754;SDS011;2902;42.130;24.732;2024-02-14T07:27:47;9.97;;;7.80;;
5754;SDS011;2902;42.130;24.732;2024-02-14T07:30:15;6.90;;;6.40;;
5754;SDS011;2902;42.130;24.732;2024-02-14T07:32:43;6.93;;;6.33;;
5754;SDS011;2902;42.130;24.732;2024-02-14T07:35:10;5.87;;;5.47;;
5754;SDS011;2902;42.130;24.732;2024-02-14T07:37:38;6.87;;;6.30;;
5754;SDS011;2902;42.130;24.732;2024-02-14T07:40:05;5.97;;;5.57;;
5754;SDS011;2902;42.130;24.732;2024-02-14T07:42:33;7.63;;;7.03;;
5754;SDS011;2902;42.130;24.732;2024-02-14T07:44:59;7.13;;;6.63;;
5754;SDS011;2902;42.130;24.732;2024-02-14T07:47:28;8.03;;;6.87;;
5754;SDS011;2902;42.130;24.732;2024-02-14T07:49:56;6.40;;;6.00;;
5754;SDS011;2902;42.130;24.732;2024-02-14T07:52:23;6.63;;;6.10;;
5754;SDS011;2902;42.130;24.732;2024-02-14T07:54:51;7.73;;;7.13;;
5754;SDS011;2902;42.130;24.732;2024-02-14T07:57:19;6.03;;;5.53;;
5754;SDS011;2902;42.130;24.732;2024-02-14T07:59:45;7.27;;;6.67;;
5754;SDS011;2902;42.130;24.732;2024-02-14T08:02:12;7.07;;;6.47;;
5754;SDS011;2902;42.130;24.732;2024-02-14T08:04:39;6.53;;;6.13;;
5754;SDS011;2902;42.130;24.732;2024-02-14T08:07:07;8.07;;;6.80;;
5754;SDS011;2902;42.130;24.732;2024-02-14T08:09:34;6.70;;;6.00;;
5754;SDS011;2902;42.130;24.732;2024-02-14T08:12:01;6.93;;;6.13;;
5754;SDS011;2902;42.130;24.732;2024-02-14T08:14:28;6.73;;;6.00;;
5754;SDS011;2902;42.130;24.732;2024-02-14T08:16:55;9.63;;;7.47;;
5754;SDS011;2902;42.130;24.732;2024-02-14T08:19:22;6.67;;;6.07;;
5754;SDS011;2902;42.130;24.732;2024-02-14T08:21:48;7.23;;;6.73;;
5754;SDS011;2902;42.130;24.732;2024-02-14T08:24:16;6.30;;;5.90;;
5754;SDS011;2902;42.130;24.732;2024-02-14T08:26:43;8.10;;;7.30;;
5754;SDS011;2902;42.130;24.732;2024-02-14T08:29:10;7.27;;;6.67;;
5754;SDS011;2902;42.130;24.732;2024-02-14T08:31:38;7.80;;;7.10;;
5754;SDS011;2902;42.130;24.732;2024-02-14T08:34:05;6.77;;;6.27;;
5754;SDS011;2902;42.130;24.732;2024-02-14T08:36:34;8.27;;;7.57;;
5754;SDS011;2902;42.130;24.732;2024-02-14T08:39:05;7.63;;;7.00;;
5754;SDS011;2902;42.130;24.732;2024-02-14T08:41:34;8.23;;;7.53;;
5754;SDS011;2902;42.130;24.732;2024-02-14T08:44:00;7.43;;;6.93;;
5754;SDS011;2902;42.130;24.732;2024-02-14T08:46:27;9.17;;;7.23;;
5754;SDS011;2902;42.130;24.732;2024-02-14T08:48:54;9.00;;;6.70;;
5754;SDS011;2902;42.130;24.732;2024-02-14T08:51:21;7.47;;;6.77;;
5754;SDS011;2902;42.130;24.732;2024-02-14T08:53:48;8.23;;;7.33;;
5754;SDS011;2902;42.130;24.732;2024-02-14T08:56:19;9.60;;;8.27;;
5754;SDS011;2902;42.130;24.732;2024-02-14T08:58:48;10.70;;;9.57;;
5754;SDS011;2902;42.130;24.732;2024-02-14T09:01:15;11.17;;;8.70;;
5754;SDS011;2902;42.130;24.732;2024-02-14T09:03:41;9.70;;;8.83;;
5754;SDS011;2902;42.130;24.732;2024-02-14T09:06:12;9.73;;;8.20;;
5754;SDS011;2902;42.130;24.732;2024-02-14T09:08:39;8.83;;;7.93;;
5754;SDS011;2902;42.130;24.732;2024-02-14T09:11:06;8.47;;;7.87;;
5754;SDS011;2902;42.130;24.732;2024-02-14T09:13:34;9.10;;;8.30;;
5754;SDS011;2902;42.130;24.732;2024-02-14T09:16:02;8.23;;;7.53;;
5754;SDS011;2902;42.130;24.732;2024-02-14T09:18:30;10.03;;;9.13;;
5754;SDS011;2902;42.130;24.732;2024-02-14T09:20:57;13.53;;;8.23;;
5754;SDS011;2902;42.130;24.732;2024-02-14T09:23:24;10.97;;;9.83;;
5754;SDS011;2902;42.130;24.732;2024-02-14T09:25:51;14.07;;;12.67;;
5754;SDS011;2902;42.130;24.732;2024-02-14T09:28:18;14.67;;;13.30;;
5754;SDS011;2902;42.130;24.732;2024-02-14T09:30:46;13.70;;;12.17;;
5754;SDS011;2902;42.130;24.732;2024-02-14T09:33:14;15.97;;;12.83;;
5754;SDS011;2902;42.130;24.732;2024-02-14T09:35:41;10.03;;;9.23;;
5754;SDS011;2902;42.130;24.732;2024-02-14T09:38:09;13.63;;;12.23;;
5754;SDS011;2902;42.130;24.732;2024-02-14T09:40:37;17.30;;;13.87;;
5754;SDS011;2902;42.130;24.732;2024-02-14T09:43:05;15.77;;;14.20;;
5754;SDS011;2902;42.130;24.732;2024-02-14T09:45:38;14.20;;;12.80;;
5754;SDS011;2902;42.130;24.732;2024-02-14T09:48:08;10.23;;;9.40;;
5754;SDS011;2902;42.130;24.732;2024-02-14T09:50:37;11.17;;;10.07;;
5754;SDS011;2902;42.130;24.732;2024-02-14T09:53:05;11.50;;;10.60;;
5754;SDS011;2902;42.130;24.732;2024-02-14T09:55:33;11.70;;;10.50;;
5754;SDS011;2902;42.130;24.732;2024-02-14T09:58:00;11.07;;;10.17;;
5754;SDS011;2902;42.130;24.732;2024-02-14T10:00:31;11.60;;;10.70;;
5754;SDS011;2902;42.130;24.732;2024-02-14T10:02:58;16.03;;;12.07;;
5754;SDS011;2902;42.130;24.732;2024-02-14T10:05:25;12.23;;;11.03;;
5754;SDS011;2902;42.130;24.732;2024-02-14T10:07:54;14.20;;;11.57;;
5754;SDS011;2902;42.130;24.732;2024-02-14T10:10:23;11.33;;;10.23;;
5754;SDS011;2902;42.130;24.732;2024-02-14T10:12:49;15.17;;;11.70;;
5754;SDS011;2902;42.130;24.732;2024-02-14T10:15:16;12.63;;;11.43;;
5754;SDS011;2902;42.130;24.732;2024-02-14T10:17:43;11.33;;;9.87;;
5754;SDS011;2902;42.130;24.732;2024-02-14T10:20:10;10.20;;;9.30;;
5754;SDS011;2902;42.130;24.732;2024-02-14T10:22:37;21.83;;;13.33;;
5754;SDS011;2902;42.130;24.732;2024-02-14T10:25:06;11.33;;;10.33;;
5754;SDS011;2902;42.130;24.732;2024-02-14T10:27:35;10.80;;;9.80;;
5754;SDS011;2902;42.130;24.732;2024-02-14T10:30:04;11.27;;;10.23;;
5754;SDS011;2902;42.130;24.732;2024-02-14T10:32:34;14.67;;;13.37;;
5754;SDS011;2902;42.130;24.732;2024-02-14T10:35:02;19.13;;;17.23;;
5754;SDS011;2902;42.130;24.732;2024-02-14T10:37:33;15.50;;;13.77;;
5754;SDS011;2902;42.130;24.732;2024-02-14T10:40:00;12.60;;;11.60;;
5754;SDS011;2902;42.130;24.732;2024-02-14T10:42:30;10.60;;;9.70;;
5754;SDS011;2902;42.130;24.732;2024-02-14T10:44:57;11.20;;;10.30;;
5754;SDS011;2902;42.130;24.732;2024-02-14T10:47:25;10.27;;;9.43;;
5754;SDS011;2902;42.130;24.732;2024-02-14T10:49:57;8.07;;;7.47;;
5754;SDS011;2902;42.130;24.732;2024-02-14T10:52:29;8.33;;;7.70;;
5754;SDS011;2902;42.130;24.732;2024-02-14T10:54:58;9.60;;;8.87;;
5754;SDS011;2902;42.130;24.732;2024-02-14T10:57:27;7.70;;;7.20;;
5754;SDS011;2902;42.130;24.732;2024-02-14T10:59:58;8.43;;;7.73;;
5754;SDS011;2902;42.130;24.732;2024-02-14T11:02:27;8.13;;;7.40;;
5754;SDS011;2902;42.130;24.732;2024-02-14T11:04:55;8.03;;;7.23;;
5754;SDS011;2902;42.130;24.732;2024-02-14T11:07:22;8.17;;;7.47;;
5754;SDS011;2902;42.130;24.732;2024-02-14T11:09:59;7.73;;;7.17;;
5754;SDS011;2902;42.130;24.732;2024-02-14T11:12:27;9.33;;;7.93;;
5754;SDS011;2902;42.130;24.732;2024-02-14T11:15:00;8.33;;;7.47;;
5754;SDS011;2902;42.130;24.732;2024-02-14T11:17:29;7.90;;;7.13;;
5754;SDS011;2902;42.130;24.732;2024-02-14T11:19:56;7.80;;;7.20;;
5754;SDS011;2902;42.130;24.732;2024-02-14T11:22:22;7.60;;;6.90;;
5754;SDS011;2902;42.130;24.732;2024-02-14T11:24:51;8.37;;;7.57;;
5754;SDS011;2902;42.130;24.732;2024-02-14T11:27:18;7.47;;;6.97;;
5754;SDS011;2902;42.130;24.732;2024-02-14T11:29:50;7.80;;;6.87;;
5754;SDS011;2902;42.130;24.732;2024-02-14T11:32:21;7.80;;;7.20;;
5754;SDS011;2902;42.130;24.732;2024-02-14T11:34:52;7.23;;;6.50;;
5754;SDS011;2902;42.130;24.732;2024-02-14T11:37:20;7.70;;;7.10;;
5754;SDS011;2902;42.130;24.732;2024-02-14T11:39:48;6.73;;;6.00;;
5754;SDS011;2902;42.130;24.732;2024-02-14T11:42:15;7.40;;;6.80;;
5754;SDS011;2902;42.130;24.732;2024-02-14T11:44:42;6.73;;;6.33;;
5754;SDS011;2902;42.130;24.732;2024-02-14T11:47:09;8.37;;;7.43;;
5754;SDS011;2902;42.130;24.732;2024-02-14T11:49:37;6.73;;;6.20;;
5754;SDS011;2902;42.130;24.732;2024-02-14T11:52:09;18.40;;;14.47;;
5754;SDS011;2902;42.130;24.732;2024-02-14T11:54:37;8.20;;;7.43;;
5754;SDS011;2902;42.130;24.732;2024-02-14T11:57:04;7.47;;;6.90;;
5754;SDS011;2902;42.130;24.732;2024-02-14T11:59:33;7.43;;;6.43;;
5754;SDS011;2902;42.130;24.732;2024-02-14T12:02:00;6.93;;;6.40;;
5754;SDS011;2902;42.130;24.732;2024-02-14T12:04:28;7.60;;;6.43;;
5754;SDS011;2902;42.130;24.732;2024-02-14T12:06:56;7.63;;;6.03;;
5754;SDS011;2902;42.130;24.732;2024-02-14T12:09:23;7.83;;;7.00;;
5754;SDS011;2902;42.130;24.732;2024-02-14T12:11:50;8.10;;;7.50;;
5754;SDS011;2902;42.130;24.732;2024-02-14T12:14:17;9.37;;;7.83;;
5754;SDS011;2902;42.130;24.732;2024-02-14T12:16:49;7.43;;;6.70;;
5754;SDS011;2902;42.130;24.732;2024-02-14T12:19:16;9.93;;;8.70;;
5754;SDS011;2902;42.130;24.732;2024-02-14T12:21:44;8.77;;;7.87;;
5754;SDS011;2902;42.130;24.732;2024-02-14T12:24:14;13.83;;;6.83;;
5754;SDS011;2902;42.130;24.732;2024-02-14T12:26:41;7.30;;;6.57;;
5754;SDS011;2902;42.130;24.732;2024-02-14T12:29:10;6.57;;;6.07;;
5754;SDS011;2902;42.130;24.732;2024-02-14T12:31:39;13.00;;;7.07;;
5754;SDS011;2902;42.130;24.732;2024-02-14T12:34:07;6.53;;;5.93;;
5754;SDS011;2902;42.130;24.732;2024-02-14T12:36:37;8.63;;;6.87;;
5754;SDS011;2902;42.130;24.732;2024-02-14T12:39:03;9.57;;;7.77;;
5754;SDS011;2902;42.130;24.732;2024-02-14T12:41:32;10.47;;;9.33;;
5754;SDS011;2902;42.130;24.732;2024-02-14T12:44:00;8.87;;;8.03;;
5754;SDS011;2902;42.130;24.732;2024-02-14T12:46:27;7.33;;;6.73;;
5754;SDS011;2902;42.130;24.732;2024-02-14T12:48:54;7.97;;;6.50;;
5754;SDS011;2902;42.130;24.732;2024-02-14T12:51:21;6.97;;;6.53;;
5754;SDS011;2902;42.130;24.732;2024-02-14T12:53:53;7.73;;;7.07;;
5754;SDS011;2902;42.130;24.732;2024-02-14T12:56:20;7.13;;;6.63;;
5754;SDS011;2902;42.130;24.732;2024-02-14T12:58:48;7.70;;;7.07;;
5754;SDS011;2902;42.130;24.732;2024-02-14T13:01:15;6.47;;;6.07;;
5754;SDS011;2902;42.130;24.732;2024-02-14T13:03:43;8.73;;;7.77;;
5754;SDS011;2902;42.130;24.732;2024-02-14T13:06:10;8.30;;;7.43;;
5754;SDS011;2902;42.130;24.732;2024-02-14T13:08:37;9.13;;;6.80;;
5754;SDS011;2902;42.130;24.732;2024-02-14T13:11:04;7.77;;;7.00;;
5754;SDS011;2902;42.130;24.732;2024-02-14T13:13:33;6.43;;;5.70;;
5754;SDS011;2902;42.130;24.732;2024-02-14T13:16:02;9.27;;;6.70;;
5754;SDS011;2902;42.130;24.732;2024-02-14T13:18:31;8.13;;;7.33;;
5754;SDS011;2902;42.130;24.732;2024-02-14T13:20:58;11.50;;;8.43;;
5754;SDS011;2902;42.130;24.732;2024-02-14T13:23:24;8.27;;;7.70;;
5754;SDS011;2902;42.130;24.732;2024-02-14T13:25:51;8.97;;;8.07;;
5754;SDS011;2902;42.130;24.732;2024-02-14T13:28:18;7.57;;;6.83;;
5754;SDS011;2902;42.130;24.732;2024-02-14T13:30:45;30.87;;;13.27;;
5754;SDS011;2902;42.130;24.732;2024-02-14T13:33:14;12.30;;;7.90;;
5754;SDS011;2902;42.130;24.732;2024-02-14T13:35:40;8.00;;;7.40;;
5754;SDS011;2902;42.130;24.732;2024-02-14T13:38:07;11.03;;;7.73;;
5754;SDS011;2902;42.130;24.732;2024-02-14T13:40:35;10.00;;;9.00;;
5754;SDS011;2902;42.130;24.732;2024-02-14T13:43:01;7.87;;;7.17;;
5754;SDS011;2902;42.130;24.732;2024-02-14T13:45:35;8.83;;;6.63;;
5754;SDS011;2902;42.130;24.732;2024-02-14T13:48:07;7.77;;;6.33;;
5754;SDS011;2902;42.130;24.732;2024-02-14T13:50:36;10.93;;;6.20;;
5754;SDS011;2902;42.130;24.732;2024-02-14T13:53:03;5.70;;;5.23;;
5754;SDS011;2902;42.130;24.732;2024-02-14T13:55:30;5.47;;;4.97;;
5754;SDS011;2902;42.130;24.732;2024-02-14T13:57:56;6.30;;;5.90;;
5754;SDS011;2902;42.130;24.732;2024-02-14T14:00:23;7.07;;;6.40;;
5754;SDS011;2902;42.130;24.732;2024-02-14T14:02:50;7.47;;;6.87;;
5754;SDS011;2902;42.130;24.732;2024-02-14T14:05:16;11.73;;;6.00;;
5754;SDS011;2902;42.130;24.732;2024-02-14T14:07:45;5.50;;;4.97;;
5754;SDS011;2902;42.130;24.732;2024-02-14T14:10:11;5.40;;;5.07;;
5754;SDS011;2902;42.130;24.732;2024-02-14T14:12:38;5.37;;;5.07;;
5754;SDS011;2902;42.130;24.732;2024-02-14T14:15:05;5.30;;;4.90;;
5754;SDS011;2902;42.130;24.732;2024-02-14T14:17:34;6.03;;;5.43;;
5754;SDS011;2902;42.130;24.732;2024-02-14T14:20:01;12.07;;;6.20;;
5754;SDS011;2902;42.130;24.732;2024-02-14T14:22:28;7.47;;;6.20;;
5754;SDS011;2902;42.130;24.732;2024-02-14T14:24:57;7.43;;;6.07;;
5754;SDS011;2902;42.130;24.732;2024-02-14T14:27:23;12.67;;;6.70;;
5754;SDS011;2902;42.130;24.732;2024-02-14T14:29:50;7.37;;;6.70;;
5754;SDS011;2902;42.130;24.732;2024-02-14T14:32:18;9.83;;;7.87;;
5754;SDS011;2902;42.130;24.732;2024-02-14T14:34:45;10.23;;;7.60;;
5754;SDS011;2902;42.130;24.732;2024-02-14T14:37:12;8.13;;;6.13;;
5754;SDS011;2902;42.130;24.732;2024-02-14T14:39:39;8.57;;;5.80;;
5754;SDS011;2902;42.130;24.732;2024-02-14T14:42:08;7.97;;;6.40;;
5754;SDS011;2902;42.130;24.732;2024-02-14T14:44:34;6.37;;;5.87;;
5754;SDS011;2902;42.130;24.732;2024-02-14T14:47:01;6.70;;;6.07;;
5754;SDS011;2902;42.130;24.732;2024-02-14T14:49:28;6.23;;;5.60;;
5754;SDS011;2902;42.130;24.732;2024-02-14T14:51:55;8.17;;;5.50;;
5754;SDS011;2902;42.130;24.732;2024-02-14T14:54:23;5.90;;;5.40;;
5754;SDS011;2902;42.130;24.732;2024-02-14T14:56:52;7.43;;;5.97;;
5754;SDS011;2902;42.130;24.732;2024-02-14T14:59:21;8.43;;;6.17;;